Time;durP1;ratioP1;P1;durP2;ratioP2;P2;SDS_P1;SDS_P2;PMS_P1;PMS_P2;Temp;Humidity;BMP_temperature;BMP_pressure;BME280_temperature;BME280_humidity;BME280_pressure;Samples;Min_cycle;Max_cycle;Signal;HPM_P1;HPM_P2
2021/09/23 00:00:09;;;;;;;;;24.67;24.67;18.30;54.80;;;;;;5033489;28;8884;-70
2021/09/23 00:02:48;;;;;;;;;24.33;23.67;18.20;54.60;;;;;;5035079;28;8781;-68
2021/09/23 00:05:33;;;;;;;;;23.33;23.33;18.10;54.80;;;;;;5034708;28;8837;-69
2021/09/23 00:08:00;;;;;;;;;22.67;22.67;18.10;54.80;;;;;;5035403;28;8797;-68
2021/09/23 00:10:31;;;;;;;;;22.00;21.67;18.10;54.90;;;;;;5034721;28;8774;-68
2021/09/23 00:12:59;;;;;;;;;19.67;19.67;18.00;55.10;;;;;;5034647;28;8967;-67
2021/09/23 00:15:25;;;;;;;;;25.00;25.00;18.00;55.30;;;;;;5034683;28;8910;-69
2021/09/23 00:17:58;;;;;;;;;23.67;23.67;18.00;54.90;;;;;;5034583;28;8785;-68
2021/09/23 00:20:30;;;;;;;;;25.00;25.00;18.00;55.00;;;;;;5034605;28;8766;-69
2021/09/23 00:22:56;;;;;;;;;25.33;25.33;18.10;55.00;;;;;;5034741;28;9431;-69
2021/09/23 00:25:25;;;;;;;;;23.67;23.67;18.10;55.10;;;;;;5034800;28;8767;-68
2021/09/23 00:27:52;;;;;;;;;28.00;25.67;18.10;54.90;;;;;;5034397;28;8825;-70
2021/09/23 00:30:18;;;;;;;;;22.33;22.33;18.10;54.90;;;;;;5034442;28;8777;-70
2021/09/23 00:32:44;;;;;;;;;22.33;22.33;18.00;55.00;;;;;;5034418;28;8831;-70
2021/09/23 00:35:10;;;;;;;;;19.00;19.00;17.90;55.00;;;;;;5034308;28;8816;-69
2021/09/23 00:37:36;;;;;;;;;22.00;22.00;18.00;55.00;;;;;;5034669;28;9459;-67
2021/09/23 00:40:07;;;;;;;;;25.33;25.33;18.00;55.00;;;;;;5034339;28;8798;-69
2021/09/23 00:42:38;;;;;;;;;23.67;23.67;18.00;55.10;;;;;;5034536;28;8888;-70
2021/09/23 00:45:06;;;;;;;;;22.00;22.00;18.00;55.10;;;;;;5034341;28;8781;-69
2021/09/23 00:47:32;;;;;;;;;28.00;28.00;18.00;55.00;;;;;;5034432;28;8808;-67
2021/09/23 00:49:58;;;;;;;;;23.00;23.00;18.00;54.60;;;;;;5034258;28;8782;-68
2021/09/23 00:52:31;;;;;;;;;22.67;22.67;18.00;54.90;;;;;;5034209;28;8769;-68
2021/09/23 00:54:58;;;;;;;;;25.67;25.00;17.90;54.90;;;;;;5034293;28;8880;-67
2021/09/23 00:57:24;;;;;;;;;23.67;22.67;17.90;54.90;;;;;;5034193;28;8792;-68
2021/09/23 00:59:55;;;;;;;;;24.33;24.33;17.90;55.10;;;;;;5034222;28;8753;-67
2021/09/23 01:02:22;;;;;;;;;27.33;27.33;17.90;55.00;;;;;;5034247;28;8794;-68
2021/09/23 01:04:48;;;;;;;;;24.33;24.33;17.80;54.90;;;;;;5034118;28;8817;-67
2021/09/23 01:07:17;;;;;;;;;26.33;26.33;17.70;55.10;;;;;;5034354;28;8801;-67
2021/09/23 01:09:48;;;;;;;;;27.00;27.00;17.80;55.00;;;;;;5034196;28;8746;-68
2021/09/23 01:12:16;;;;;;;;;24.67;24.67;17.80;54.90;;;;;;5034064;28;8781;-67
2021/09/23 01:14:42;;;;;;;;;23.67;23.67;17.80;54.90;;;;;;5034128;28;8778;-67
2021/09/23 01:17:09;;;;;;;;;27.00;27.00;17.80;54.80;;;;;;5034035;28;8766;-68
2021/09/23 01:19:36;;;;;;;;;22.33;22.33;17.80;55.00;;;;;;5033990;28;8792;-67
2021/09/23 01:22:02;;;;;;;;;26.67;26.67;17.80;54.90;;;;;;5034218;28;8885;-69
2021/09/23 01:24:27;;;;;;;;;27.33;27.33;17.80;54.90;;;;;;5034073;28;8758;-67
2021/09/23 01:26:57;;;;;;;;;24.00;24.00;17.70;54.80;;;;;;5033868;28;8933;-67
2021/09/23 01:29:26;;;;;;;;;25.33;25.33;17.70;54.80;;;;;;5033916;28;8781;-68
2021/09/23 01:31:53;;;;;;;;;24.00;24.00;17.60;54.90;;;;;;5034147;28;8762;-68
2021/09/23 01:34:19;;;;;;;;;28.00;28.00;17.60;54.90;;;;;;5026690;28;8857;-67
2021/09/23 01:36:45;;;;;;;;;27.33;27.33;17.60;54.70;;;;;;5017458;28;8783;-68
2021/09/23 01:39:17;;;;;;;;;27.00;27.00;17.50;54.70;;;;;;5018026;28;8784;-67
2021/09/23 01:41:43;;;;;;;;;26.67;26.00;17.50;54.70;;;;;;5017915;28;8784;-66
2021/09/23 01:44:08;;;;;;;;;24.67;24.67;17.60;54.90;;;;;;5017685;28;8801;-67
2021/09/23 01:46:34;;;;;;;;;26.00;25.33;17.50;55.00;;;;;;5017529;28;8808;-67
2021/09/23 01:49:00;;;;;;;;;24.67;24.67;17.50;54.60;;;;;;5017835;28;8776;-67
2021/09/23 01:51:25;;;;;;;;;26.67;26.67;17.50;54.60;;;;;;5017528;28;8839;-67
2021/09/23 01:53:51;;;;;;;;;22.00;22.00;17.50;54.70;;;;;;5017495;28;8788;-67
2021/09/23 01:56:17;;;;;;;;;26.00;26.00;17.40;54.60;;;;;;5017435;28;8784;-67
2021/09/23 01:58:43;;;;;;;;;24.00;24.00;17.30;54.60;;;;;;5017460;28;8784;-69
2021/09/23 02:01:08;;;;;;;;;29.00;29.00;17.10;54.80;;;;;;5017281;28;8796;-69
2021/09/23 02:03:34;;;;;;;;;23.67;23.67;17.00;55.10;;;;;;5017094;28;8811;-68
2021/09/23 02:06:00;;;;;;;;;22.00;22.00;17.00;55.50;;;;;;5017195;28;8816;-67
2021/09/23 02:08:26;;;;;;;;;21.67;21.33;16.90;55.50;;;;;;5017267;28;8768;-69
2021/09/23 02:10:52;;;;;;;;;28.33;28.33;16.90;56.60;;;;;;5017361;28;8772;-69
2021/09/23 02:13:17;;;;;;;;;22.00;22.00;16.90;55.70;;;;;;5017406;28;8780;-68
2021/09/23 02:15:43;;;;;;;;;25.33;25.33;17.00;55.70;;;;;;5017033;28;8787;-68
2021/09/23 02:18:09;;;;;;;;;29.33;28.33;16.90;55.60;;;;;;5016976;28;8792;-67
2021/09/23 02:20:35;;;;;;;;;28.00;28.00;17.00;55.60;;;;;;5016987;28;8784;-67
2021/09/23 02:23:00;;;;;;;;;28.00;27.00;16.90;55.80;;;;;;5017129;28;8853;-70
2021/09/23 02:25:26;;;;;;;;;25.00;25.00;16.90;55.40;;;;;;5016899;28;9438;-68
2021/09/23 02:27:52;;;;;;;;;26.33;26.33;16.90;55.50;;;;;;5016995;28;8815;-68
2021/09/23 02:30:18;;;;;;;;;26.67;26.67;16.90;55.50;;;;;;5017113;28;8990;-67
2021/09/23 02:32:44;;;;;;;;;25.00;25.00;16.80;55.40;;;;;;5016806;28;8795;-66
2021/09/23 02:35:10;;;;;;;;;22.67;22.67;16.60;55.70;;;;;;5017094;28;8800;-67
2021/09/23 02:37:36;;;;;;;;;24.00;24.00;16.50;56.00;;;;;;5016939;28;9438;-70
2021/09/23 02:40:03;;;;;;;;;26.67;25.67;16.50;56.20;;;;;;5016829;28;8819;-69
2021/09/23 02:42:28;;;;;;;;;23.33;23.33;16.50;56.30;;;;;;5016823;28;8764;-70
2021/09/23 02:44:55;;;;;;;;;23.33;23.33;16.50;56.10;;;;;;5015361;28;9370;-65
2021/09/23 02:47:22;;;;;;;;;27.33;27.00;16.50;56.10;;;;;;5016427;28;9538;-67
2021/09/23 02:49:49;;;;;;;;;25.33;25.33;16.50;56.10;;;;;;5016713;28;8870;-67
2021/09/23 02:52:15;;;;;;;;;24.33;24.33;16.50;56.10;;;;;;5016616;28;8780;-67
2021/09/23 02:54:41;;;;;;;;;25.00;25.00;16.50;56.40;;;;;;5016622;28;8810;-67
2021/09/23 02:57:07;;;;;;;;;19.33;19.33;16.50;56.30;;;;;;5016557;28;9446;-67
2021/09/23 02:59:33;;;;;;;;;24.33;23.33;16.50;56.40;;;;;;5016559;28;9441;-68
2021/09/23 03:01:59;;;;;;;;;32.00;31.00;16.40;56.20;;;;;;5016274;28;8779;-67
2021/09/23 03:04:25;;;;;;;;;20.67;20.67;16.40;56.30;;;;;;5016261;28;8835;-68
2021/09/23 03:06:50;;;;;;;;;26.00;26.00;16.40;56.10;;;;;;5016044;28;8958;-67
2021/09/23 03:09:16;;;;;;;;;30.33;30.33;16.50;56.20;;;;;;5016117;28;8776;-67
2021/09/23 03:11:42;;;;;;;;;27.67;27.00;16.40;56.00;;;;;;5016106;28;8776;-68
2021/09/23 03:14:08;;;;;;;;;32.00;32.00;16.50;55.80;;;;;;5015972;28;8788;-69
2021/09/23 03:16:34;;;;;;;;;28.00;28.00;16.30;55.90;;;;;;5015997;28;8787;-68
2021/09/23 03:19:00;;;;;;;;;28.33;27.00;16.40;56.10;;;;;;5015913;28;8788;-67
2021/09/23 03:21:26;;;;;;;;;24.00;24.00;16.40;56.10;;;;;;5015872;28;8802;-68
2021/09/23 03:23:51;;;;;;;;;28.00;28.00;16.30;56.00;;;;;;5015845;28;8878;-69
2021/09/23 03:26:17;;;;;;;;;28.00;28.00;16.30;56.30;;;;;;5015728;28;8816;-68
2021/09/23 03:28:43;;;;;;;;;27.67;27.67;16.20;56.40;;;;;;5015823;28;8779;-67
2021/09/23 03:31:09;;;;;;;;;28.00;28.00;16.20;56.70;;;;;;5015729;28;8768;-69
2021/09/23 03:33:35;;;;;;;;;28.33;28.33;16.20;56.60;;;;;;5015909;28;8812;-68
2021/09/23 03:36:00;;;;;;;;;33.33;33.33;16.20;56.70;;;;;;5014538;28;8780;-68
2021/09/23 03:38:26;;;;;;;;;32.00;32.00;16.10;56.90;;;;;;5015788;28;8753;-67
2021/09/23 03:40:52;;;;;;;;;26.33;26.33;16.10;57.20;;;;;;5015802;28;8772;-69
2021/09/23 03:43:19;;;;;;;;;34.67;33.00;16.00;57.10;;;;;;5015792;28;9387;-67
2021/09/23 03:45:49;;;;;;;;;34.00;33.00;16.00;57.40;;;;;;5015398;28;8764;-68
2021/09/23 03:48:15;;;;;;;;;33.25;33.00;16.10;57.30;;;;;;5015395;28;8855;-68
2021/09/23 03:50:41;;;;;;;;;31.75;31.75;16.10;57.20;;;;;;5015436;28;8800;-68
2021/09/23 03:53:07;;;;;;;;;35.75;34.75;16.20;57.20;;;;;;5015297;28;8791;-69
2021/09/23 03:55:33;;;;;;;;;34.67;33.33;16.20;57.00;;;;;;5015167;28;8768;-69
2021/09/23 03:57:59;;;;;;;;;36.25;35.00;16.20;57.20;;;;;;5015022;28;8800;-67
2021/09/23 04:00:25;;;;;;;;;41.75;37.50;16.20;56.90;;;;;;5015253;28;8764;-69
2021/09/23 04:02:52;;;;;;;;;39.00;37.00;16.20;56.80;;;;;;5015297;28;8814;-67
2021/09/23 04:05:18;;;;;;;;;40.00;36.75;16.20;56.90;;;;;;5015120;28;8934;-69
2021/09/23 04:07:44;;;;;;;;;40.50;38.00;16.10;57.30;;;;;;5015070;28;8788;-66
2021/09/23 04:10:11;;;;;;;;;37.75;36.00;16.10;57.40;;;;;;5015078;28;8764;-68
2021/09/23 04:12:37;;;;;;;;;35.50;35.00;16.00;57.30;;;;;;5015278;28;8783;-68
2021/09/23 04:15:04;;;;;;;;;37.75;36.00;16.10;57.50;;;;;;5015029;28;8764;-67
2021/09/23 04:17:30;;;;;;;;;49.50;42.50;16.10;57.30;;;;;;5015173;28;8772;-68
2021/09/23 04:19:55;;;;;;;;;39.50;37.50;16.10;57.30;;;;;;5015157;28;9419;-67
2021/09/23 04:22:21;;;;;;;;;42.25;37.75;16.10;57.20;;;;;;5015004;28;8791;-68
2021/09/23 04:24:47;;;;;;;;;45.50;40.25;16.20;57.20;;;;;;5014854;28;8891;-66
2021/09/23 04:27:14;;;;;;;;;48.50;41.50;16.30;56.90;;;;;;5014765;28;8812;-67
2021/09/23 04:29:43;;;;;;;;;44.50;40.50;16.30;57.90;;;;;;5015013;28;8771;-64
2021/09/23 04:32:12;;;;;;;;;40.25;37.25;16.30;56.50;;;;;;5014743;28;8834;-64
2021/09/23 04:34:39;;;;;;;;;42.75;38.75;16.30;56.60;;;;;;5015074;28;8812;-64
2021/09/23 04:37:05;;;;;;;;;48.00;41.50;16.20;56.60;;;;;;5014950;28;9450;-65
2021/09/23 04:39:31;;;;;;;;;47.75;41.75;16.20;56.70;;;;;;5018237;28;8788;-65
2021/09/23 04:41:56;;;;;;;;;36.50;35.00;16.20;56.50;;;;;;5021160;28;8818;-65
2021/09/23 04:44:23;;;;;;;;;40.75;34.00;16.20;56.40;;;;;;5024582;28;8786;-65
2021/09/23 04:46:49;;;;;;;;;47.25;41.00;16.30;56.40;;;;;;5018915;28;8817;-65
2021/09/23 04:49:15;;;;;;;;;42.75;39.00;16.30;56.10;;;;;;5025908;28;8901;-65
2021/09/23 04:51:41;;;;;;;;;46.00;40.50;16.30;55.90;;;;;;5014440;28;8799;-65
2021/09/23 04:54:07;;;;;;;;;48.50;42.75;16.30;56.00;;;;;;5016319;28;8784;-69
2021/09/23 04:56:34;;;;;;;;;38.25;37.25;16.40;55.80;;;;;;5014255;28;8847;-66
2021/09/23 04:59:00;;;;;;;;;39.50;37.00;16.50;55.50;;;;;;5014629;28;8869;-66
2021/09/23 05:01:26;;;;;;;;;38.25;36.50;16.50;55.40;;;;;;5014463;28;8772;-66
2021/09/23 05:03:52;;;;;;;;;42.50;38.50;16.50;55.30;;;;;;5014375;28;8993;-71
2021/09/23 05:06:18;;;;;;;;;44.00;39.00;16.50;55.20;;;;;;5014680;28;8827;-68
2021/09/23 05:08:44;;;;;;;;;37.00;35.75;16.50;55.40;;;;;;5015720;28;8865;-67
2021/09/23 05:11:10;;;;;;;;;43.75;38.50;16.50;55.40;;;;;;5017840;28;8764;-66
2021/09/23 05:13:35;;;;;;;;;41.75;38.75;16.50;55.40;;;;;;5018227;28;8777;-67
2021/09/23 05:16:01;;;;;;;;;40.75;38.00;16.50;55.30;;;;;;5018174;28;8877;-67
2021/09/23 05:18:27;;;;;;;;;44.00;39.75;16.50;55.30;;;;;;5018524;28;8871;-66
2021/09/23 05:20:53;;;;;;;;;40.75;37.00;16.50;56.40;;;;;;5018371;28;8808;-66
2021/09/23 05:23:19;;;;;;;;;50.50;43.00;16.50;55.30;;;;;;5018347;28;8760;-67
2021/09/23 05:25:44;;;;;;;;;47.25;41.00;16.60;55.40;;;;;;5018192;28;8772;-66
2021/09/23 05:28:10;;;;;;;;;49.00;42.25;16.60;55.30;;;;;;5018292;28;8772;-67
2021/09/23 05:30:37;;;;;;;;;46.75;42.00;16.60;55.40;;;;;;5018249;28;8760;-67
2021/09/23 05:33:03;;;;;;;;;48.75;41.75;16.60;55.40;;;;;;5017788;28;8779;-67
2021/09/23 05:35:29;;;;;;;;;49.00;42.75;16.70;55.60;;;;;;5017793;28;8827;-67
2021/09/23 05:37:54;;;;;;;;;41.50;38.00;16.70;55.60;;;;;;5018030;28;8768;-67
2021/09/23 05:40:21;;;;;;;;;50.50;43.50;16.80;55.40;;;;;;5017964;28;8776;-67
2021/09/23 05:42:46;;;;;;;;;46.25;39.75;16.90;55.40;;;;;;5017707;28;8776;-67
2021/09/23 05:45:13;;;;;;;;;50.00;42.00;16.90;55.20;;;;;;5017641;28;8806;-67
2021/09/23 05:47:40;;;;;;;;;47.00;41.75;16.90;55.40;;;;;;5017520;28;8893;-67
2021/09/23 05:50:07;;;;;;;;;55.75;46.75;16.90;55.20;;;;;;5017864;28;8780;-67
2021/09/23 05:52:33;;;;;;;;;54.75;47.00;16.90;55.00;;;;;;5017535;28;8768;-66
2021/09/23 05:54:59;;;;;;;;;61.50;50.75;16.80;55.40;;;;;;5017676;28;8800;-66
2021/09/23 05:57:32;;;;;;;;;54.00;46.75;16.90;55.30;;;;;;5017546;28;8887;-65
2021/09/23 05:59:59;;;;;;;;;51.75;43.50;16.90;55.30;;;;;;5017750;28;9356;-66
2021/09/23 06:02:24;;;;;;;;;53.00;45.75;16.90;55.20;;;;;;5017253;28;8783;-67
2021/09/23 06:04:50;;;;;;;;;50.75;42.75;16.90;55.20;;;;;;5017186;28;8859;-67
2021/09/23 06:07:16;;;;;;;;;41.50;38.00;16.90;55.20;;;;;;5017430;28;8894;-67
2021/09/23 06:09:42;;;;;;;;;46.75;39.50;17.00;55.00;;;;;;5017483;28;8799;-66
2021/09/23 06:12:08;;;;;;;;;46.00;41.50;16.90;55.00;;;;;;5017488;28;9521;-67
2021/09/23 06:14:35;;;;;;;;;46.25;40.50;16.90;55.20;;;;;;5017138;28;8806;-67
2021/09/23 06:17:00;;;;;;;;;42.75;39.50;16.90;55.40;;;;;;5016955;28;8849;-66
2021/09/23 06:19:27;;;;;;;;;39.25;37.75;16.90;55.60;;;;;;5016690;28;8780;-67
2021/09/23 06:21:52;;;;;;;;;48.00;41.25;17.00;55.50;;;;;;5017218;28;8866;-67
2021/09/23 06:24:18;;;;;;;;;49.25;42.50;17.10;55.20;;;;;;5017237;28;8899;-67
2021/09/23 06:26:44;;;;;;;;;42.25;38.50;17.20;55.20;;;;;;5016808;28;9470;-67
2021/09/23 06:29:10;;;;;;;;;40.50;37.75;17.20;54.90;;;;;;5017187;28;8784;-67
2021/09/23 06:31:35;;;;;;;;;51.25;42.75;17.20;55.00;;;;;;5016797;28;8776;-67
2021/09/23 06:34:02;;;;;;;;;42.75;39.00;17.20;54.60;;;;;;5017184;28;8812;-67
2021/09/23 06:36:28;;;;;;;;;43.00;38.75;17.10;54.30;;;;;;5016686;28;8794;-67
2021/09/23 06:38:53;;;;;;;;;40.50;37.50;17.20;54.50;;;;;;5016678;28;8764;-67
2021/09/23 06:41:19;;;;;;;;;36.25;35.00;17.30;54.80;;;;;;5016693;28;8776;-66
2021/09/23 06:43:48;;;;;;;;;37.00;34.33;17.30;54.30;;;;;;5016578;28;8780;-66
2021/09/23 06:46:14;;;;;;;;;33.50;33.00;17.30;53.90;;;;;;5016473;28;8804;-66
2021/09/23 06:48:40;;;;;;;;;34.75;33.75;17.40;54.00;;;;;;5016524;28;8773;-67
2021/09/23 06:51:06;;;;;;;;;40.33;36.00;17.50;54.30;;;;;;5016494;28;8796;-67
2021/09/23 06:53:32;;;;;;;;;32.00;32.00;17.40;53.90;;;;;;5016433;28;8784;-66
2021/09/23 06:55:57;;;;;;;;;42.50;38.75;17.40;54.20;;;;;;5016638;28;8794;-67
2021/09/23 06:58:23;;;;;;;;;39.00;36.67;17.30;54.20;;;;;;5016532;28;8922;-66
2021/09/23 07:00:49;;;;;;;;;33.33;33.00;17.30;54.10;;;;;;5016229;28;8784;-66
2021/09/23 07:03:15;;;;;;;;;56.50;48.25;17.40;54.00;;;;;;5016497;28;8812;-67
2021/09/23 07:05:43;;;;;;;;;38.00;35.33;17.50;54.00;;;;;;5016064;28;8938;-65
2021/09/23 07:08:10;;;;;;;;;31.67;30.00;17.70;54.50;;;;;;5016094;28;8843;-66
2021/09/23 07:10:37;;;;;;;;;44.33;39.00;17.60;53.30;;;;;;5016102;28;8760;-67
2021/09/23 07:13:02;;;;;;;;;40.25;37.75;17.70;53.50;;;;;;5031161;28;8792;-65
2021/09/23 07:15:28;;;;;;;;;43.00;38.75;17.70;53.70;;;;;;5016263;28;8819;-66
2021/09/23 07:17:54;;;;;;;;;40.33;37.33;17.80;53.80;;;;;;5016164;28;8768;-66
2021/09/23 07:20:20;;;;;;;;;36.00;35.00;18.00;52.20;;;;;;5015949;28;8768;-66
2021/09/23 07:22:45;;;;;;;;;32.67;32.67;17.90;52.00;;;;;;5015817;28;8776;-67
2021/09/23 07:25:12;;;;;;;;;39.33;35.33;17.90;52.00;;;;;;5015681;28;8938;-67
2021/09/23 07:27:37;;;;;;;;;36.33;34.33;17.90;52.30;;;;;;5015658;28;8812;-67
2021/09/23 07:30:04;;;;;;;;;39.00;35.00;18.00;52.10;;;;;;5015916;28;8787;-66
2021/09/23 07:32:30;;;;;;;;;37.00;35.00;18.10;51.90;;;;;;5014870;28;8776;-66
2021/09/23 07:34:56;;;;;;;;;35.67;34.67;18.10;51.80;;;;;;5015260;28;8820;-66
2021/09/23 07:37:21;;;;;;;;;37.33;35.33;18.30;51.40;;;;;;5015458;28;8798;-66
2021/09/23 07:39:47;;;;;;;;;39.67;37.00;18.50;51.30;;;;;;5015475;28;8895;-66
2021/09/23 07:42:16;;;;;;;;;34.67;34.67;18.50;50.70;;;;;;5015310;28;8776;-67
2021/09/23 07:44:42;;;;;;;;;40.00;36.00;18.20;51.00;;;;;;5015667;28;8837;-67
2021/09/23 07:47:08;;;;;;;;;37.00;36.00;18.10;51.80;;;;;;5015099;28;8819;-65
2021/09/23 07:49:34;;;;;;;;;29.00;29.00;18.30;52.10;;;;;;5015589;28;9430;-67
2021/09/23 07:52:00;;;;;;;;;41.33;35.00;18.20;51.40;;;;;;5015223;28;8784;-66
2021/09/23 07:54:26;;;;;;;;;39.00;36.00;18.20;51.90;;;;;;5015182;28;8768;-67
2021/09/23 07:56:52;;;;;;;;;39.33;36.67;18.40;52.00;;;;;;5015131;28;8796;-66
2021/09/23 07:59:17;;;;;;;;;39.33;36.33;18.50;51.60;;;;;;5015234;28;8791;-67
2021/09/23 08:01:43;;;;;;;;;38.33;35.33;18.70;51.40;;;;;;5015132;28;8788;-66
2021/09/23 08:04:09;;;;;;;;;36.00;33.00;18.80;50.60;;;;;;5015126;28;8851;-66
2021/09/23 08:06:35;;;;;;;;;32.00;32.00;18.90;50.50;;;;;;5015045;28;8907;-65
2021/09/23 08:09:01;;;;;;;;;37.67;34.67;18.80;50.50;;;;;;5014948;28;8780;-66
2021/09/23 08:11:27;;;;;;;;;36.67;34.00;18.80;49.90;;;;;;5014893;28;8776;-66
2021/09/23 08:13:53;;;;;;;;;34.00;33.33;18.90;49.70;;;;;;5015072;28;9438;-65
2021/09/23 08:16:18;;;;;;;;;31.67;31.33;18.90;49.70;;;;;;5015160;28;8768;-65
2021/09/23 08:18:45;;;;;;;;;34.00;33.00;18.90;48.90;;;;;;5015059;28;8819;-65
2021/09/23 08:21:11;;;;;;;;;29.33;29.33;18.80;49.40;;;;;;5014772;28;9205;-66
2021/09/23 08:23:37;;;;;;;;;33.00;31.00;18.80;49.50;;;;;;5014998;28;8787;-65
2021/09/23 08:26:03;;;;;;;;;31.67;31.67;19.00;49.40;;;;;;5014953;28;9423;-65
2021/09/23 08:28:32;;;;;;;;;37.67;34.67;19.20;49.20;;;;;;5014680;28;8882;-65
2021/09/23 08:30:58;;;;;;;;;35.33;33.67;19.30;48.60;;;;;;5014778;28;8786;-66
2021/09/23 08:33:24;;;;;;;;;30.67;29.67;19.50;48.20;;;;;;5014680;28;8881;-66
2021/09/23 08:35:50;;;;;;;;;31.67;30.67;19.50;47.80;;;;;;5014662;28;8792;-67
2021/09/23 08:38:19;;;;;;;;;33.33;32.33;19.60;47.60;;;;;;5014608;28;8768;-65
2021/09/23 08:40:47;;;;;;;;;34.67;33.00;19.50;47.20;;;;;;5014890;28;8821;-66
2021/09/23 08:43:14;;;;;;;;;34.33;32.33;19.50;47.20;;;;;;5014530;28;8799;-66
2021/09/23 08:45:40;;;;;;;;;36.67;34.00;19.30;47.00;;;;;;5014460;28;8780;-65
2021/09/23 08:48:07;;;;;;;;;33.33;31.33;19.20;46.70;;;;;;5014698;28;8934;-66
2021/09/23 08:50:33;;;;;;;;;21.67;21.67;19.20;46.60;;;;;;5013385;28;8784;-66
2021/09/23 08:52:59;;;;;;;;;27.67;27.00;19.50;46.30;;;;;;5014726;28;8787;-66
2021/09/23 08:55:33;;;;;;;;;24.00;23.33;19.80;45.50;;;;;;5014703;28;9446;-65
2021/09/23 08:58:03;;;;;;;;;22.33;22.33;20.00;43.30;;;;;;5014661;28;8797;-66
2021/09/23 09:00:31;;;;;;;;;19.67;19.67;20.00;41.60;;;;;;5014433;28;8874;-66
2021/09/23 09:03:09;;;;;;;;;21.67;21.67;20.20;41.40;;;;;;5014336;28;8776;-66
2021/09/23 09:05:37;;;;;;;;;22.33;22.33;20.20;41.40;;;;;;5015395;28;8846;-66
2021/09/23 09:08:05;;;;;;;;;23.67;23.67;20.40;41.60;;;;;;5014561;28;8816;-66
2021/09/23 09:10:32;;;;;;;;;28.67;28.67;20.40;41.80;;;;;;5014429;28;8760;-65
2021/09/23 09:13:06;;;;;;;;;23.33;23.33;20.40;41.70;;;;;;5014272;28;8776;-67
2021/09/23 09:15:45;;;;;;;;;21.00;21.00;20.50;41.70;;;;;;5014540;28;8858;-67
2021/09/23 09:18:16;;;;;;;;;24.33;24.33;20.70;41.30;;;;;;5014370;28;8776;-67
2021/09/23 09:21:00;;;;;;;;;25.67;25.67;20.80;41.90;;;;;;5014271;28;8818;-66
2021/09/23 09:23:45;;;;;;;;;23.33;23.33;21.00;41.50;;;;;;5014114;28;8768;-67
2021/09/23 09:26:21;;;;;;;;;25.00;25.00;21.10;40.50;;;;;;5014144;28;9207;-66
2021/09/23 09:28:52;;;;;;;;;24.67;24.67;21.20;40.10;;;;;;5014406;28;8771;-67
2021/09/23 09:31:18;;;;;;;;;26.00;25.67;21.40;39.60;;;;;;5014235;28;8784;-66
2021/09/23 09:33:47;;;;;;;;;24.00;24.00;21.60;39.60;;;;;;5014284;28;8808;-66
2021/09/23 09:36:30;;;;;;;;;22.00;22.00;21.60;39.20;;;;;;5014048;28;8861;-65
2021/09/23 09:38:58;;;;;;;;;24.00;24.00;21.70;38.30;;;;;;5014390;28;8910;-65
2021/09/23 09:41:27;;;;;;;;;19.00;19.00;21.60;38.20;;;;;;5014245;28;8768;-65
2021/09/23 09:44:08;;;;;;;;;17.00;17.00;21.70;36.50;;;;;;5013920;28;8823;-66
2021/09/23 09:46:43;;;;;;;;;14.67;14.67;21.70;36.40;;;;;;5029329;28;8843;-65
2021/09/23 09:49:09;;;;;;;;;20.33;20.33;21.80;35.90;;;;;;5014185;28;8815;-65
2021/09/23 09:51:37;;;;;;;;;19.00;19.00;21.90;36.50;;;;;;5014159;28;9505;-65
2021/09/23 09:54:04;;;;;;;;;20.00;20.00;21.80;36.10;;;;;;5014354;28;8834;-65
2021/09/23 09:56:30;;;;;;;;;17.33;17.33;21.40;37.20;;;;;;5017395;28;8890;-66
2021/09/23 09:59:16;;;;;;;;;22.33;22.33;21.20;38.40;;;;;;5017268;28;8783;-65
2021/09/23 10:01:49;;;;;;;;;24.33;24.33;20.90;39.70;;;;;;5017600;28;8803;-66
2021/09/23 10:04:17;;;;;;;;;23.00;23.00;20.60;39.80;;;;;;5017154;28;8832;-65
2021/09/23 10:06:43;;;;;;;;;23.67;23.67;20.70;40.20;;;;;;5016899;28;8792;-66
2021/09/23 10:09:11;;;;;;;;;26.00;26.00;20.80;40.30;;;;;;5016895;28;8768;-66
2021/09/23 10:11:41;;;;;;;;;20.00;20.00;21.10;40.10;;;;;;5017157;28;8779;-66
2021/09/23 10:14:07;;;;;;;;;15.67;15.67;21.40;38.80;;;;;;5017354;28;8763;-65
2021/09/23 10:16:33;;;;;;;;;18.00;18.00;21.70;36.70;;;;;;5017259;28;8784;-66
2021/09/23 10:18:59;;;;;;;;;18.33;18.33;22.10;35.90;;;;;;5017167;28;8795;-66
2021/09/23 10:21:27;;;;;;;;;19.33;19.33;22.40;35.60;;;;;;5016735;28;8772;-65
2021/09/23 10:23:54;;;;;;;;;22.33;22.33;22.60;36.30;;;;;;5016775;28;8776;-65
2021/09/23 10:26:24;;;;;;;;;21.33;21.33;22.60;36.10;;;;;;5016768;28;8835;-65
2021/09/23 10:28:52;;;;;;;;;20.00;20.00;22.80;36.40;;;;;;5017107;28;8796;-66
2021/09/23 10:31:22;;;;;;;;;16.33;16.33;23.20;36.10;;;;;;5016690;28;8871;-65
2021/09/23 10:33:49;;;;;;;;;20.67;20.67;23.70;34.50;;;;;;5016849;28;8812;-65
2021/09/23 10:36:17;;;;;;;;;18.00;17.33;23.50;33.60;;;;;;5016693;28;8795;-66
2021/09/23 10:38:44;;;;;;;;;19.33;19.33;23.80;33.70;;;;;;5014546;28;8800;-65
2021/09/23 10:41:13;;;;;;;;;14.67;14.67;24.00;32.60;;;;;;5025672;28;8800;-65
2021/09/23 10:43:42;;;;;;;;;14.33;14.33;24.20;32.10;;;;;;5024811;28;8780;-65
2021/09/23 10:46:11;;;;;;;;;15.00;15.00;24.60;31.50;;;;;;5023479;28;8792;-65
2021/09/23 10:48:38;;;;;;;;;14.00;14.00;25.00;29.40;;;;;;5016492;28;8784;-65
2021/09/23 10:51:05;;;;;;;;;13.67;13.67;25.30;29.70;;;;;;5016381;28;11500;-65
2021/09/23 10:53:36;;;;;;;;;15.33;15.33;25.40;29.10;;;;;;5017679;28;8806;-65
2021/09/23 10:56:04;;;;;;;;;13.67;13.67;25.20;29.40;;;;;;5023435;28;11540;-64
2021/09/23 10:58:31;;;;;;;;;15.00;15.00;24.70;29.60;;;;;;5022696;28;12150;-64
2021/09/23 11:01:00;;;;;;;;;12.33;12.33;24.40;29.90;;;;;;5035956;28;8888;-66
2021/09/23 11:03:34;;;;;;;;;14.33;14.33;24.00;31.00;;;;;;5023496;28;8807;-63
2021/09/23 11:06:09;;;;;;;;;15.33;15.33;23.70;32.10;;;;;;5016753;28;8788;-63
2021/09/23 11:08:46;;;;;;;;;13.33;13.33;23.40;32.40;;;;;;5021758;28;8820;-63
2021/09/23 11:11:13;;;;;;;;;15.33;15.33;23.50;32.20;;;;;;5021746;28;8807;-64
2021/09/23 11:13:40;;;;;;;;;12.33;12.33;23.80;32.10;;;;;;5015763;28;8780;-63
2021/09/23 11:16:12;;;;;;;;;13.33;13.33;24.20;30.50;;;;;;5019752;28;8788;-63
2021/09/23 11:18:41;;;;;;;;;13.00;13.00;24.40;29.60;;;;;;5015864;28;11516;-63
2021/09/23 11:21:10;;;;;;;;;10.33;10.33;25.00;29.30;;;;;;5014615;28;12216;-64
2021/09/23 11:23:37;;;;;;;;;9.67;9.67;25.80;28.00;;;;;;5015710;28;11510;-64
2021/09/23 11:26:04;;;;;;;;;9.33;9.33;26.00;26.90;;;;;;5017613;28;11606;-64
2021/09/23 11:28:30;;;;;;;;;13.33;13.33;25.90;27.30;;;;;;5024624;28;12283;-64
2021/09/23 11:30:58;;;;;;;;;14.00;14.00;25.70;28.20;;;;;;5017370;28;11519;-64
2021/09/23 11:33:24;;;;;;;;;11.00;11.00;25.60;28.00;;;;;;5026454;28;11564;-64
2021/09/23 11:35:52;;;;;;;;;9.33;9.33;25.60;28.20;;;;;;5026813;28;11493;-64
2021/09/23 11:38:20;;;;;;;;;11.00;11.00;25.60;28.80;;;;;;5021306;28;11518;-64
2021/09/23 11:40:49;;;;;;;;;12.67;12.67;26.10;28.30;;;;;;5021555;28;11528;-63
2021/09/23 11:43:21;;;;;;;;;11.75;11.75;26.40;27.40;;;;;;5030558;28;11512;-64
2021/09/23 11:45:53;;;;;;;;;11.75;11.75;27.20;26.20;;;;;;5027249;28;11501;-64
2021/09/23 11:48:27;;;;;;;;;12.00;12.00;31.10;23.70;;;;;;5021854;28;11567;-65
2021/09/23 11:51:09;;;;;;;;;9.25;9.25;34.00;21.40;;;;;;5030341;28;11511;-64
2021/09/23 11:53:37;;;;;;;;;7.00;7.00;34.30;20.70;;;;;;5035186;28;11450;-64
2021/09/23 11:56:16;;;;;;;;;8.25;8.25;32.70;19.60;;;;;;5026552;28;11471;-64
2021/09/23 11:58:46;;;;;;;;;9.25;9.25;31.70;20.70;;;;;;5035209;28;11473;-64
2021/09/23 12:01:12;;;;;;;;;8.75;8.75;30.20;21.80;;;;;;5026870;28;12180;-64
2021/09/23 12:03:43;;;;;;;;;10.50;10.50;29.10;22.60;;;;;;5022653;28;11510;-65
2021/09/23 12:06:14;;;;;;;;;8.75;8.75;29.10;23.40;;;;;;5027006;28;9479;-64
2021/09/23 12:08:40;;;;;;;;;9.50;9.50;30.50;23.00;;;;;;5022028;28;11474;-64
2021/09/23 12:11:12;;;;;;;;;12.25;12.25;34.20;21.10;;;;;;5021048;28;11507;-64
2021/09/23 12:13:46;;;;;;;;;10.75;10.75;38.40;18.90;;;;;;5015052;28;11512;-64
2021/09/23 12:16:14;;;;;;;;;9.50;9.50;39.40;16.80;;;;;;5023012;28;11501;-63
2021/09/23 12:18:42;;;;;;;;;11.25;11.25;38.30;17.30;;;;;;5025694;28;11478;-64
2021/09/23 12:21:14;;;;;;;;;11.00;11.00;36.10;17.60;;;;;;5016357;28;11499;-64
2021/09/23 12:23:41;;;;;;;;;12.25;12.25;33.40;19.50;;;;;;5001625;28;11485;-66
2021/09/23 12:26:38;;;;;;;;;11.00;11.00;31.60;21.00;;;;;;5016926;28;11493;-64
2021/09/23 12:29:09;;;;;;;;;11.25;11.25;29.90;22.10;;;;;;4969810;28;11594;-64
2021/09/23 12:31:38;;;;;;;;;12.50;12.50;28.90;23.60;;;;;;4976385;28;12357;-66
2021/09/23 12:34:06;;;;;;;;;14.00;14.00;28.00;24.70;;;;;;4974892;28;11525;-69
2021/09/23 12:36:35;;;;;;;;;12.00;12.00;28.40;25.50;;;;;;4978055;28;11524;-66